YAM weather

Sault Ste Marie Airport
Sault Ste Marie, Ontario, Canada

Public forecast

Using degrees Celsius for public forecast. Weather courtesy of forecast.io.

Current aviation weather report (METAR) for Sault Ste Marie Airport

Retrieved 2019/12/14 15:00 UTC (21 minutes ago):

CYAM 141500Z 32004KT 12SM -SHSN FEW008 OVC016 M01/M02 A2964 RMK CF2CU6 CIG VRB 12-20 SLP047

Aviation forecast (TAF) for Sault Ste Marie Airport

Retrieved 2019/12/14 14:48 UTC (33 minutes ago):

TAF TAF CYAM 141344Z 1414/1502 28007KT P6SM BKN015 OVC025 TEMPO 1414/1417 4SM -SN BR FEW008 OVC015 PROB30 1414/1417 1SM -FZDZ BR OVC005 FM141700 30012KT 3SM -SHSN OVC009 TEMPO 1417/1424 P6SM -SN BKN015 PROB30 1417/1423 3/4SM -SHSN VV007 FM150000 31010G20KT P6SM -SHSN OVC020 RMK NXT FCST BY 142000Z